createdAt,value
2018-10-21T00:00:13.772Z,13.81
2018-10-21T00:01:13.791Z,14.02
2018-10-21T00:02:13.837Z,13.51
2018-10-21T00:03:13.963Z,13.36
2018-10-21T00:04:13.856Z,13.47
2018-10-21T00:05:13.861Z,13.70
2018-10-21T00:06:13.891Z,13.51
2018-10-21T00:07:13.909Z,13.38
2018-10-21T00:08:13.922Z,13.32
2018-10-21T00:09:14.001Z,13.22
2018-10-21T00:10:13.953Z,13.30
2018-10-21T00:11:13.978Z,13.52
2018-10-21T00:12:14.007Z,13.17
2018-10-21T00:13:14.021Z,12.99
2018-10-21T00:14:14.039Z,13.00
2018-10-21T00:15:14.146Z,13.21
2018-10-21T00:16:14.112Z,13.11
2018-10-21T00:17:14.097Z,13.56
2018-10-21T00:18:14.111Z,13.74
2018-10-21T00:20:14.151Z,13.71
2018-10-21T00:21:14.292Z,13.12
2018-10-21T00:22:14.189Z,13.36
2018-10-21T00:23:14.210Z,13.49
2018-10-21T00:24:14.228Z,13.29
2018-10-21T00:25:14.237Z,13.47
2018-10-21T00:26:14.261Z,13.80
2018-10-21T00:27:14.326Z,13.89
2018-10-21T00:28:14.301Z,13.51
2018-10-21T00:29:14.324Z,13.38
2018-10-21T00:31:14.362Z,13.14
2018-10-21T00:32:14.381Z,13.54
2018-10-21T00:33:14.435Z,13.55
2018-10-21T00:34:14.415Z,13.38
2018-10-21T00:35:14.447Z,13.67
2018-10-21T00:36:14.460Z,13.71
2018-10-21T00:37:14.480Z,13.80
2018-10-21T00:38:14.488Z,13.70
2018-10-21T00:39:14.596Z,13.58
2018-10-21T00:40:14.594Z,13.59
2018-10-21T00:41:14.554Z,13.49
2018-10-21T00:42:14.570Z,12.89
2018-10-21T00:43:14.589Z,12.99
2018-10-21T00:44:14.628Z,13.43
2018-10-21T00:45:14.649Z,13.74
2018-10-21T00:46:14.658Z,13.47
2018-10-21T00:47:14.659Z,13.52
2018-10-21T00:48:14.678Z,13.71
2018-10-21T00:49:14.715Z,14.01
2018-10-21T00:50:14.714Z,13.95
2018-10-21T00:51:14.752Z,13.41
2018-10-21T00:52:14.748Z,13.52
2018-10-21T00:53:14.787Z,13.74
2018-10-21T00:54:14.795Z,13.83
2018-10-21T00:55:14.829Z,13.89
2018-10-21T00:56:14.820Z,13.52
2018-10-21T00:57:14.922Z,13.41
2018-10-21T00:58:14.864Z,13.33
2018-10-21T00:59:14.885Z,13.24
2018-10-21T01:00:14.893Z,13.30
2018-10-21T01:01:14.922Z,12.95
2018-10-21T01:02:14.939Z,12.82
2018-10-21T01:03:15.029Z,12.97
2018-10-21T01:04:15.075Z,12.95
2018-10-21T01:05:15.000Z,13.06
2018-10-21T01:06:15.021Z,12.96
2018-10-21T01:07:15.032Z,12.82
2018-10-21T01:08:15.070Z,12.67
2018-10-21T01:09:15.122Z,12.81
2018-10-21T01:10:15.134Z,12.48
2018-10-21T01:11:15.115Z,12.41
2018-10-21T01:12:15.125Z,12.16
2018-10-21T01:13:15.145Z,12.42
2018-10-21T01:14:15.161Z,12.84
2018-10-21T01:15:15.221Z,13.14
2018-10-21T01:16:15.200Z,13.22
2018-10-21T01:17:15.220Z,13.24
2018-10-21T01:18:15.241Z,13.15
2018-10-21T01:19:15.312Z,13.06
2018-10-21T01:20:15.283Z,12.79
2018-10-21T01:21:15.343Z,12.84
2018-10-21T01:22:15.306Z,12.74
2018-10-21T01:23:15.337Z,12.99
2018-10-21T01:24:15.364Z,13.18
2018-10-21T01:25:15.401Z,13.17
2018-10-21T01:26:15.387Z,13.30
2018-10-21T01:27:15.463Z,13.21
2018-10-21T01:28:15.425Z,13.00
2018-10-21T01:29:15.436Z,13.03
2018-10-21T01:30:15.461Z,12.70
2018-10-21T01:31:15.476Z,12.38
2018-10-21T01:32:15.503Z,12.74
2018-10-21T01:33:15.674Z,12.48
2018-10-21T01:34:15.538Z,12.30
2018-10-21T01:35:15.552Z,12.23
2018-10-21T01:36:15.687Z,12.11
2018-10-21T01:37:15.678Z,12.08
2018-10-21T01:38:15.637Z,12.38
2018-10-21T01:39:15.680Z,12.67
2018-10-21T01:40:15.649Z,12.71
2018-10-21T01:41:15.669Z,12.87
2018-10-21T01:42:15.694Z,12.66
2018-10-21T01:43:15.701Z,12.33
2018-10-21T01:44:15.715Z,12.44
2018-10-21T01:45:15.887Z,12.41
2018-10-21T01:46:15.749Z,12.20
2018-10-21T01:47:15.777Z,12.20
2018-10-21T01:48:15.791Z,12.45
2018-10-21T01:49:15.807Z,12.60
2018-10-21T01:50:15.827Z,12.77
2018-10-21T01:51:15.943Z,12.81
2018-10-21T01:52:15.867Z,12.87
2018-10-21T01:53:15.885Z,12.60
2018-10-21T01:54:15.901Z,12.67
2018-10-21T01:55:15.919Z,12.74
2018-10-21T01:56:15.942Z,12.39
2018-10-21T01:58:15.978Z,12.77
2018-10-21T01:59:16.004Z,12.77
2018-10-21T02:00:16.210Z,12.59
2018-10-21T02:01:16.030Z,12.54
2018-10-21T02:02:16.050Z,12.74
2018-10-21T02:03:16.220Z,12.54
2018-10-21T02:04:16.083Z,12.70
2018-10-21T02:05:16.104Z,12.67
2018-10-21T02:06:16.122Z,12.79
2018-10-21T02:07:16.139Z,12.71
2018-10-21T02:08:16.158Z,12.97
2018-10-21T02:09:16.263Z,13.03
2018-10-21T02:10:16.195Z,13.07
2018-10-21T02:11:16.219Z,12.69
2018-10-21T02:12:16.239Z,12.78
2018-10-21T02:14:16.345Z,12.96
2018-10-21T02:15:16.406Z,12.99
2018-10-21T02:16:16.306Z,13.22
2018-10-21T02:17:16.330Z,13.09
2018-10-21T02:19:16.376Z,12.78
2018-10-21T02:20:16.379Z,12.60
2018-10-21T02:21:16.463Z,12.51
2018-10-21T02:22:16.423Z,12.60
2018-10-21T02:23:16.436Z,12.41
2018-10-21T02:24:16.461Z,12.44
2018-10-21T02:25:16.474Z,12.16
2018-10-21T02:26:16.499Z,12.11
2018-10-21T02:27:16.603Z,12.01
2018-10-21T02:29:16.536Z,12.20
2018-10-21T02:30:16.562Z,12.01
2018-10-21T02:31:16.573Z,12.21
2018-10-21T02:32:16.597Z,12.45
2018-10-21T02:33:16.682Z,12.27
2018-10-21T02:34:16.647Z,12.42
2018-10-21T02:35:16.644Z,12.74
2018-10-21T02:36:16.676Z,12.46
2018-10-21T02:37:16.685Z,12.20
2018-10-21T02:38:16.710Z,12.29
2018-10-21T02:39:16.800Z,12.42
2018-10-21T02:40:16.738Z,12.60
2018-10-21T02:41:16.772Z,12.84
2018-10-21T02:42:16.826Z,12.63
2018-10-21T02:43:16.794Z,12.93
2018-10-21T02:44:16.823Z,12.67
2018-10-21T02:45:16.914Z,12.27
2018-10-21T02:46:16.851Z,12.20
2018-10-21T02:47:16.870Z,12.16
2018-10-21T02:48:16.890Z,12.33
2018-10-21T02:49:16.903Z,12.30
2018-10-21T02:50:16.928Z,12.44
2018-10-21T02:51:17.040Z,12.23
2018-10-21T02:52:16.961Z,12.08
2018-10-21T02:53:16.982Z,11.83
2018-10-21T02:54:16.998Z,11.82
2018-10-21T02:55:17.016Z,11.74
2018-10-21T02:56:17.107Z,12.04
2018-10-21T02:57:17.184Z,12.38
2018-10-21T02:58:17.069Z,12.27
2018-10-21T02:59:17.087Z,12.30
2018-10-21T03:00:17.100Z,12.21
2018-10-21T03:01:17.122Z,11.97
2018-10-21T03:02:17.141Z,11.77
2018-10-21T03:03:17.201Z,11.75
2018-10-21T03:04:17.175Z,12.15
2018-10-21T03:05:17.192Z,11.94
2018-10-21T03:06:17.217Z,11.65
2018-10-21T03:07:17.321Z,12.04
2018-10-21T03:08:17.250Z,11.97
2018-10-21T03:09:17.385Z,12.11
2018-10-21T03:10:17.287Z,12.11
2018-10-21T03:11:17.303Z,12.15
2018-10-21T03:12:17.323Z,12.21
2018-10-21T03:13:17.334Z,12.48
2018-10-21T03:14:17.357Z,12.75
2018-10-21T03:15:17.471Z,12.89
2018-10-21T03:16:17.395Z,12.81
2018-10-21T03:17:17.426Z,12.41
2018-10-21T03:18:17.442Z,12.39
2018-10-21T03:19:17.439Z,12.45
2018-10-21T03:20:17.464Z,12.16
2018-10-21T03:21:17.566Z,12.21
2018-10-21T03:22:17.495Z,12.42
2018-10-21T03:23:17.509Z,12.56
2018-10-21T03:24:17.539Z,12.62
2018-10-21T03:25:17.557Z,12.70
2018-10-21T03:26:17.575Z,12.75
2018-10-21T03:27:17.724Z,12.74
2018-10-21T03:28:17.606Z,12.71
2018-10-21T03:29:17.629Z,12.79
2018-10-21T03:30:17.646Z,12.38
2018-10-21T03:31:17.661Z,12.41
2018-10-21T03:32:17.674Z,12.74
2018-10-21T03:33:17.843Z,12.46
2018-10-21T03:34:17.711Z,11.82
2018-10-21T03:35:17.780Z,11.72
2018-10-21T03:36:17.742Z,11.86
2018-10-21T03:37:17.824Z,11.87
2018-10-21T03:38:17.790Z,11.87
2018-10-21T03:39:17.800Z,12.13
2018-10-21T03:40:17.908Z,12.51
2018-10-21T03:41:17.844Z,12.29
2018-10-21T03:42:17.858Z,12.41
2018-10-21T03:43:17.875Z,12.49
2018-10-21T03:44:17.889Z,12.63
2018-10-21T03:45:17.913Z,12.57
2018-10-21T03:46:17.946Z,12.66
2018-10-21T03:47:17.933Z,12.82
2018-10-21T03:48:18.077Z,12.67
2018-10-21T03:49:17.977Z,12.62
2018-10-21T03:50:17.993Z,12.27
2018-10-21T03:51:18.018Z,12.09
2018-10-21T03:52:18.059Z,12.16
2018-10-21T03:53:18.045Z,12.13
2018-10-21T03:54:18.075Z,12.39
2018-10-21T03:55:18.081Z,12.31
2018-10-21T03:56:18.112Z,12.29
2018-10-21T03:57:18.115Z,12.52
2018-10-21T03:58:18.138Z,12.41
2018-10-21T03:59:18.155Z,12.69
2018-10-21T04:00:18.172Z,12.48
2018-10-21T04:01:18.238Z,12.11
2018-10-21T04:02:18.209Z,12.16
2018-10-21T04:03:18.219Z,12.41
2018-10-21T04:04:18.307Z,12.20
2018-10-21T04:05:18.331Z,11.96
2018-10-21T04:06:18.277Z,12.20
2018-10-21T04:07:18.291Z,12.42
2018-10-21T04:08:18.312Z,12.56
2018-10-21T04:09:18.330Z,12.42
2018-10-21T04:10:18.358Z,12.27
2018-10-21T04:11:18.365Z,12.26
2018-10-21T04:12:18.377Z,12.21
2018-10-21T04:13:18.397Z,12.41
2018-10-21T04:14:18.418Z,12.44
2018-10-21T04:15:18.444Z,12.57
2018-10-21T04:16:18.571Z,12.49
2018-10-21T04:17:18.469Z,12.54
2018-10-21T04:18:18.489Z,12.30
2018-10-21T04:19:18.504Z,12.11
2018-10-21T04:20:18.522Z,12.11
2018-10-21T04:21:18.538Z,12.09
2018-10-21T04:22:18.553Z,11.94
2018-10-21T04:23:18.571Z,11.94
2018-10-21T04:24:18.591Z,12.11
2018-10-21T04:25:18.608Z,12.06
2018-10-21T04:26:18.620Z,12.15
2018-10-21T04:27:18.644Z,12.12
2018-10-21T04:28:18.723Z,12.04
2018-10-21T04:29:18.685Z,11.74
2018-10-21T04:30:18.704Z,11.96
2018-10-21T04:31:18.713Z,12.09
2018-10-21T04:32:18.729Z,11.67
2018-10-21T04:33:18.748Z,11.64
2018-10-21T04:34:18.765Z,11.77
2018-10-21T04:35:18.816Z,12.13
2018-10-21T04:36:18.796Z,12.20
2018-10-21T04:37:18.820Z,12.04
2018-10-21T04:38:18.847Z,12.12
2018-10-21T04:39:18.858Z,12.13
2018-10-21T04:40:19.016Z,12.26
2018-10-21T04:41:18.887Z,12.42
2018-10-21T04:42:18.901Z,12.39
2018-10-21T04:43:18.918Z,12.38
2018-10-21T04:44:18.978Z,12.42
2018-10-21T04:45:18.955Z,12.29
2018-10-21T04:46:18.980Z,11.96
2018-10-21T04:47:18.989Z,11.96
2018-10-21T04:48:19.005Z,11.75
2018-10-21T04:49:19.023Z,11.77
2018-10-21T04:50:19.043Z,11.82
2018-10-21T04:51:19.060Z,11.53
2018-10-21T04:52:19.082Z,11.34
2018-10-21T04:53:19.089Z,10.86
2018-10-21T04:54:19.113Z,11.25
2018-10-21T04:55:19.131Z,11.32
2018-10-21T04:56:19.146Z,10.96
2018-10-21T04:57:19.282Z,10.59
2018-10-21T04:58:19.182Z,10.76
2018-10-21T04:59:19.198Z,10.71
2018-10-21T05:00:19.213Z,10.86
2018-10-21T05:01:19.232Z,10.88
2018-10-21T05:02:19.247Z,11.17
2018-10-21T05:03:19.305Z,11.27
2018-10-21T05:04:19.299Z,11.35
2018-10-21T05:05:19.297Z,11.29
2018-10-21T05:06:19.312Z,10.80
2018-10-21T05:07:19.337Z,10.74
2018-10-21T05:08:19.351Z,11.09
2018-10-21T05:09:19.378Z,11.38
2018-10-21T05:10:19.398Z,11.20
2018-10-21T05:11:19.400Z,10.83
2018-10-21T05:12:19.454Z,10.99
2018-10-21T05:13:19.440Z,11.25
2018-10-21T05:14:19.456Z,11.28
2018-10-21T05:15:19.632Z,11.35
2018-10-21T05:16:19.506Z,11.65
2018-10-21T05:17:19.513Z,11.71
2018-10-21T05:18:19.521Z,11.68
2018-10-21T05:19:19.547Z,11.41
2018-10-21T05:20:19.565Z,11.34
2018-10-21T05:21:19.580Z,11.68
2018-10-21T05:22:19.680Z,11.25
2018-10-21T05:23:19.610Z,11.06
2018-10-21T05:24:19.649Z,10.98
2018-10-21T05:25:19.755Z,11.03
2018-10-21T05:26:19.667Z,10.86
2018-10-21T05:27:19.694Z,11.41
2018-10-21T05:28:19.698Z,11.65
2018-10-21T05:29:19.715Z,11.83
2018-10-21T05:30:19.730Z,11.64
2018-10-21T05:31:19.747Z,11.59
2018-10-21T05:32:19.765Z,11.47
2018-10-21T05:33:19.776Z,11.59
2018-10-21T05:34:19.797Z,11.28
2018-10-21T05:35:19.816Z,11.24
2018-10-21T05:36:19.832Z,11.25
2018-10-21T05:37:19.854Z,11.31
2018-10-21T05:38:19.870Z,11.61
2018-10-21T05:39:19.890Z,11.54
2018-10-21T05:40:19.907Z,11.47
2018-10-21T05:41:19.910Z,11.46
2018-10-21T05:42:19.934Z,11.49
2018-10-21T05:43:19.961Z,11.41
2018-10-21T05:44:19.972Z,11.72
2018-10-21T05:45:19.994Z,11.67
2018-10-21T05:46:20.009Z,11.70
2018-10-21T05:47:20.063Z,11.64
2018-10-21T05:48:20.043Z,11.20
2018-10-21T05:49:20.056Z,11.11
2018-10-21T05:50:20.080Z,11.21
2018-10-21T05:51:20.096Z,11.25
2018-10-21T05:52:20.103Z,11.03
2018-10-21T05:53:20.195Z,11.02
2018-10-21T05:54:20.142Z,11.01
2018-10-21T05:55:20.157Z,10.92
2018-10-21T05:56:20.169Z,10.81
2018-10-21T05:57:20.193Z,10.70
2018-10-21T05:58:20.301Z,11.10
2018-10-21T05:59:20.228Z,10.81
2018-10-21T06:00:20.243Z,10.63
2018-10-21T06:01:20.266Z,10.63
2018-10-21T06:02:20.278Z,10.98
2018-10-21T06:03:20.296Z,11.03
2018-10-21T06:04:20.308Z,11.17
2018-10-21T06:05:20.338Z,11.17
2018-10-21T06:06:20.451Z,10.98
2018-10-21T06:07:20.370Z,10.96
2018-10-21T06:08:20.385Z,11.27
2018-10-21T06:09:20.402Z,11.38
2018-10-21T06:10:20.429Z,11.38
2018-10-21T06:11:20.435Z,11.50
2018-10-21T06:12:20.443Z,11.75
2018-10-21T06:13:20.475Z,11.47
2018-10-21T06:14:20.491Z,11.41
2018-10-21T06:15:20.508Z,11.34
2018-10-21T06:16:20.669Z,11.43
2018-10-21T06:17:20.535Z,11.47
2018-10-21T06:18:20.551Z,11.72
2018-10-21T06:19:20.572Z,11.46
2018-10-21T06:20:20.585Z,11.50
2018-10-21T06:21:20.604Z,11.32
2018-10-21T06:22:20.621Z,11.53
2018-10-21T06:23:20.637Z,11.50
2018-10-21T06:24:20.657Z,11.46
2018-10-21T06:25:20.671Z,11.44
2018-10-21T06:26:20.691Z,11.49
2018-10-21T06:27:20.711Z,11.27
2018-10-21T06:28:20.718Z,11.28
2018-10-21T06:29:20.736Z,11.03
2018-10-21T06:30:20.759Z,11.24
2018-10-21T06:31:20.773Z,11.34
2018-10-21T06:32:20.785Z,11.31
2018-10-21T06:33:20.797Z,11.10
2018-10-21T06:34:20.817Z,11.10
2018-10-21T06:35:20.841Z,11.35
2018-10-21T06:36:20.858Z,11.52
2018-10-21T06:37:20.884Z,11.52
2018-10-21T06:38:20.898Z,11.71
2018-10-21T06:39:20.906Z,11.68
2018-10-21T06:40:20.919Z,11.53
2018-10-21T06:41:20.950Z,11.46
2018-10-21T06:42:20.969Z,11.20
2018-10-21T06:43:20.993Z,11.28
2018-10-21T06:44:20.987Z,11.02
2018-10-21T06:45:21.121Z,10.80
2018-10-21T06:46:21.025Z,11.01
2018-10-21T06:47:21.036Z,11.17
2018-10-21T06:48:21.073Z,11.43
2018-10-21T06:49:21.129Z,11.59
2018-10-21T06:50:21.101Z,11.52
2018-10-21T06:51:21.121Z,11.70
2018-10-21T06:52:21.133Z,11.46
2018-10-21T06:53:21.144Z,11.41
2018-10-21T06:54:21.163Z,11.46
2018-10-21T06:55:21.174Z,11.24
2018-10-21T06:56:21.255Z,11.24
2018-10-21T06:57:21.341Z,11.36
2018-10-21T06:58:21.229Z,11.25
2018-10-21T06:59:21.241Z,11.32
2018-10-21T07:00:21.264Z,11.25
2018-10-21T07:01:21.304Z,11.32
2018-10-21T07:02:21.301Z,11.43
2018-10-21T07:03:21.314Z,11.72
2018-10-21T07:04:21.396Z,11.70
2018-10-21T07:05:21.339Z,11.61
2018-10-21T07:06:21.367Z,11.52
2018-10-21T07:07:21.381Z,11.25
2018-10-21T07:08:21.400Z,11.07
2018-10-21T07:09:21.416Z,10.81
2018-10-21T07:10:21.425Z,10.91
2018-10-21T07:11:21.463Z,11.10
2018-10-21T07:12:21.465Z,11.20
2018-10-21T07:13:21.481Z,11.06
2018-10-21T07:14:21.512Z,11.03
2018-10-21T07:15:21.624Z,11.35
2018-10-21T07:16:21.553Z,11.21
2018-10-21T07:17:21.563Z,11.36
2018-10-21T07:18:21.566Z,11.54
2018-10-21T07:19:21.590Z,11.68
2018-10-21T07:20:21.605Z,11.28
2018-10-21T07:21:21.615Z,11.36
2018-10-21T07:22:21.643Z,11.27
2018-10-21T07:23:21.659Z,11.46
2018-10-21T07:24:21.681Z,11.67
2018-10-21T07:25:21.691Z,11.77
2018-10-21T07:26:21.717Z,11.75
2018-10-21T07:27:21.721Z,11.86
2018-10-21T07:28:21.751Z,11.85
2018-10-21T07:29:21.773Z,12.09
2018-10-21T07:30:21.881Z,12.06
2018-10-21T07:31:21.791Z,12.15
2018-10-21T07:32:21.812Z,11.62
2018-10-21T07:33:21.830Z,11.80
2018-10-21T07:34:21.849Z,12.05
2018-10-21T07:35:21.852Z,11.83
2018-10-21T07:36:21.955Z,12.06
2018-10-21T07:37:21.897Z,12.04
2018-10-21T07:38:21.908Z,12.04
2018-10-21T07:39:21.929Z,12.05
2018-10-21T07:40:21.953Z,12.21
2018-10-21T07:41:21.962Z,12.23
2018-10-21T07:42:21.992Z,12.39
2018-10-21T07:43:21.988Z,12.30
2018-10-21T07:44:22.011Z,12.38
2018-10-21T07:45:22.023Z,12.41
2018-10-21T07:46:22.063Z,12.49
2018-10-21T07:47:22.083Z,12.60
2018-10-21T07:48:22.081Z,12.64
2018-10-21T07:49:22.102Z,12.78
2018-10-21T07:50:22.123Z,13.27
2018-10-21T07:51:22.147Z,13.65
2018-10-21T07:52:22.153Z,13.95
2018-10-21T07:53:22.168Z,13.62
2018-10-21T07:54:22.199Z,13.14
2018-10-21T07:55:22.406Z,12.96
2018-10-21T07:56:22.223Z,13.00
2018-10-21T07:57:22.254Z,13.07
2018-10-21T07:58:22.267Z,12.97
2018-10-21T07:59:22.285Z,12.99
2018-10-21T08:00:22.286Z,12.96
2018-10-21T08:01:22.471Z,13.07
2018-10-21T08:02:22.327Z,13.21
2018-10-21T08:03:22.372Z,13.18
2018-10-21T08:04:22.355Z,13.25
2018-10-21T08:05:22.377Z,13.24
2018-10-21T08:06:22.395Z,13.09
2018-10-21T08:07:22.414Z,13.15
2018-10-21T08:08:22.428Z,13.00
2018-10-21T08:09:22.453Z,13.06
2018-10-21T08:10:22.479Z,13.14
2018-10-21T08:11:22.508Z,12.95
2018-10-21T08:12:22.494Z,12.92
2018-10-21T08:13:22.517Z,13.22
2018-10-21T08:14:22.535Z,13.54
2018-10-21T08:15:22.554Z,13.37
2018-10-21T08:16:22.575Z,13.07
2018-10-21T08:17:22.587Z,13.09
2018-10-21T08:18:22.605Z,13.20
2018-10-21T08:19:22.615Z,13.46
2018-10-21T08:20:22.646Z,13.88
2018-10-21T08:21:22.764Z,14.02
2018-10-21T08:22:22.676Z,13.81
2018-10-21T08:23:22.701Z,13.62
2018-10-21T08:24:22.708Z,13.55
2018-10-21T08:25:22.725Z,13.52
2018-10-21T08:26:22.818Z,13.51
2018-10-21T08:27:22.790Z,13.55
2018-10-21T08:28:22.781Z,13.61
2018-10-21T08:29:22.819Z,13.61
2018-10-21T08:30:22.814Z,13.52
2018-10-21T08:31:22.832Z,13.54
2018-10-21T08:32:22.856Z,13.27
2018-10-21T08:33:22.877Z,13.20
2018-10-21T08:34:22.909Z,13.20
2018-10-21T08:35:22.908Z,13.21
2018-10-21T08:36:22.919Z,13.11
2018-10-21T08:37:22.947Z,13.25
2018-10-21T08:38:22.953Z,13.40
2018-10-21T08:39:23.035Z,13.52
2018-10-21T08:40:23.000Z,13.79
2018-10-21T08:41:23.015Z,14.06
2018-10-21T08:42:23.024Z,14.43
2018-10-21T08:43:23.059Z,14.56
2018-10-21T08:44:23.078Z,14.27
2018-10-21T08:45:23.081Z,14.12
2018-10-21T08:46:23.250Z,14.43
2018-10-21T08:47:23.120Z,14.32
2018-10-21T08:48:23.136Z,14.13
2018-10-21T08:49:23.165Z,13.87
2018-10-21T08:50:23.174Z,13.81
2018-10-21T08:51:23.185Z,14.02
2018-10-21T08:52:23.218Z,14.12
2018-10-21T08:53:23.234Z,13.98
2018-10-21T08:54:23.263Z,13.95
2018-10-21T08:55:23.257Z,13.94
2018-10-21T08:56:23.288Z,14.07
2018-10-21T08:57:23.302Z,14.35
2018-10-21T08:58:23.324Z,14.88
2018-10-21T08:59:23.341Z,15.24
2018-10-21T09:00:23.358Z,15.49
2018-10-21T09:01:23.370Z,15.57
2018-10-21T09:02:23.388Z,15.11
2018-10-21T09:03:23.427Z,14.60
2018-10-21T09:04:23.438Z,14.71
2018-10-21T09:05:23.448Z,14.84
2018-10-21T09:06:23.467Z,14.52
2018-10-21T09:07:23.526Z,14.61
2018-10-21T09:08:23.501Z,14.78
2018-10-21T09:09:23.528Z,14.68
2018-10-21T09:10:23.789Z,14.50
2018-10-21T09:11:23.559Z,14.39
2018-10-21T09:12:23.598Z,14.35
2018-10-21T09:13:23.598Z,14.35
2018-10-21T09:14:23.611Z,14.46
2018-10-21T09:15:23.687Z,14.43
2018-10-21T09:16:23.670Z,14.44
2018-10-21T09:17:23.664Z,14.44
2018-10-21T09:18:23.760Z,14.49
2018-10-21T09:19:23.705Z,14.42
2018-10-21T09:20:23.736Z,14.35
2018-10-21T09:21:23.750Z,14.21
2018-10-21T09:22:23.771Z,14.27
2018-10-21T09:23:23.781Z,14.25
2018-10-21T09:24:23.810Z,14.19
2018-10-21T09:25:23.826Z,14.06
2018-10-21T09:26:23.830Z,14.06
2018-10-21T09:27:23.858Z,14.09
2018-10-21T09:28:23.881Z,14.20
2018-10-21T09:29:23.917Z,14.35
2018-10-21T09:30:23.911Z,14.52
2018-10-21T09:31:24.063Z,14.56
2018-10-21T09:32:23.958Z,14.52
2018-10-21T09:33:23.999Z,14.49
2018-10-21T09:34:23.994Z,14.47
2018-10-21T09:35:24.006Z,14.54
2018-10-21T09:36:24.026Z,14.49
2018-10-21T09:37:24.048Z,14.52
2018-10-21T09:38:24.067Z,14.62
2018-10-21T09:39:24.095Z,14.71
2018-10-21T09:40:24.164Z,14.72
2018-10-21T09:41:24.379Z,14.80
2018-10-21T09:42:24.154Z,14.78
2018-10-21T09:43:24.200Z,14.94
2018-10-21T09:44:24.199Z,14.99
2018-10-21T09:45:24.198Z,15.03
2018-10-21T09:46:24.379Z,15.03
2018-10-21T09:47:24.228Z,15.01
2018-10-21T09:48:24.303Z,14.91
2018-10-21T09:49:24.266Z,14.84
2018-10-21T09:50:24.285Z,14.90
2018-10-21T09:51:24.951Z,14.86
2018-10-21T09:52:24.726Z,14.95
2018-10-21T09:53:24.414Z,14.99
2018-10-21T09:54:24.365Z,14.93
2018-10-21T09:55:24.424Z,14.94
2018-10-21T09:56:24.417Z,14.88
2018-10-21T09:57:24.440Z,14.98
2018-10-21T09:58:24.457Z,14.99
2018-10-21T09:59:24.530Z,14.99
2018-10-21T10:00:24.580Z,15.03
2018-10-21T10:01:24.503Z,15.02
2018-10-21T10:02:24.522Z,15.11
2018-10-21T10:03:24.551Z,15.06
2018-10-21T10:04:24.620Z,15.20
2018-10-21T10:05:24.643Z,15.21
2018-10-21T10:06:24.601Z,15.08
2018-10-21T10:07:24.618Z,15.19
2018-10-21T10:08:24.630Z,15.12
2018-10-21T10:09:24.657Z,15.17
2018-10-21T10:10:24.662Z,15.17
2018-10-21T10:11:24.687Z,15.21
2018-10-21T10:12:24.705Z,15.17
2018-10-21T10:13:24.727Z,15.19
2018-10-21T10:14:24.743Z,15.19
2018-10-21T10:15:24.762Z,15.15
2018-10-21T10:16:24.782Z,15.24
2018-10-21T10:17:24.805Z,15.27
2018-10-21T10:18:24.816Z,15.23
2018-10-21T10:19:24.849Z,15.26
2018-10-21T10:20:24.870Z,15.12
2018-10-21T10:21:24.884Z,15.21
2018-10-21T10:22:24.904Z,15.20
2018-10-21T10:23:25.011Z,15.20
2018-10-21T10:24:24.952Z,15.28
2018-10-21T10:25:24.960Z,15.26
2018-10-21T10:26:24.971Z,15.39
2018-10-21T10:27:24.998Z,15.31
2018-10-21T10:28:25.011Z,15.38
2018-10-21T10:29:25.025Z,15.39
2018-10-21T10:30:25.124Z,15.30
2018-10-21T10:31:25.079Z,15.42
2018-10-21T10:32:25.089Z,15.24
2018-10-21T10:33:25.113Z,15.28
2018-10-21T10:34:25.135Z,15.36
2018-10-21T10:35:25.143Z,15.41
2018-10-21T10:36:25.210Z,15.36
2018-10-21T10:37:25.263Z,15.38
2018-10-21T10:38:25.234Z,15.46
2018-10-21T10:39:25.226Z,15.52
2018-10-21T10:40:25.272Z,15.61
2018-10-21T10:41:25.263Z,15.67
2018-10-21T10:42:25.280Z,15.78
2018-10-21T10:43:25.306Z,15.82
2018-10-21T10:44:25.322Z,15.85
2018-10-21T10:45:25.354Z,15.93
2018-10-21T10:46:25.380Z,15.89
2018-10-21T10:47:25.385Z,15.94
2018-10-21T10:48:25.418Z,15.99
2018-10-21T10:49:25.431Z,15.89
2018-10-21T10:50:25.443Z,15.99
2018-10-21T10:51:25.536Z,15.97
2018-10-21T10:52:25.520Z,16.09
2018-10-21T10:53:25.571Z,16.04
2018-10-21T10:54:25.767Z,16.23
2018-10-21T10:55:25.545Z,16.22
2018-10-21T10:56:25.568Z,16.31
2018-10-21T10:57:25.611Z,16.38
2018-10-21T10:58:25.599Z,16.48
2018-10-21T10:59:25.634Z,16.44
2018-10-21T11:00:25.643Z,16.50
2018-10-21T11:01:25.668Z,16.56
2018-10-21T11:02:25.713Z,16.68
2018-10-21T11:03:25.714Z,16.88
2018-10-21T11:04:25.744Z,16.89
2018-10-21T11:05:25.750Z,16.89
2018-10-21T11:06:25.859Z,17.03
2018-10-21T11:07:25.899Z,16.96
2018-10-21T11:08:25.829Z,17.15
2018-10-21T11:09:25.863Z,17.29
2018-10-21T11:10:25.872Z,17.25
2018-10-21T11:11:25.890Z,17.30
2018-10-21T11:12:25.911Z,17.38
2018-10-21T11:13:25.939Z,17.46
2018-10-21T11:14:26.026Z,17.51
2018-10-21T11:15:26.037Z,17.63
2018-10-21T11:16:26.013Z,17.57
2018-10-21T11:17:26.038Z,17.71
2018-10-21T11:18:26.049Z,18.04
2018-10-21T11:19:26.076Z,18.70
2018-10-21T11:20:26.109Z,19.43
2018-10-21T11:21:26.129Z,20.25
2018-10-21T11:22:26.227Z,20.71
2018-10-21T11:23:26.176Z,20.47
2018-10-21T11:24:26.201Z,19.50
2018-10-21T11:25:26.236Z,18.92
2018-10-21T11:26:26.261Z,18.58
2018-10-21T11:27:26.278Z,18.27
2018-10-21T11:28:26.298Z,18.19
2018-10-21T11:29:26.328Z,18.31
2018-10-21T11:30:26.360Z,18.84
2018-10-21T11:31:26.369Z,19.80
2018-10-21T11:32:26.412Z,20.56
2018-10-21T11:33:26.414Z,20.28
2018-10-21T11:34:26.451Z,20.28
2018-10-21T11:35:26.462Z,20.15
2018-10-21T11:36:26.488Z,20.10
2018-10-21T11:37:26.728Z,19.54
2018-10-21T11:38:26.540Z,18.97
2018-10-21T11:39:26.561Z,18.76
2018-10-21T11:40:26.579Z,18.67
2018-10-21T11:41:26.604Z,18.58
2018-10-21T11:42:26.642Z,18.58
2018-10-21T11:43:26.669Z,18.67
2018-10-21T11:44:26.668Z,18.46
2018-10-21T11:45:26.702Z,18.54
2018-10-21T11:46:26.831Z,18.40
2018-10-21T11:47:26.738Z,18.24
2018-10-21T11:48:26.764Z,18.21
2018-10-21T11:49:26.804Z,18.22
2018-10-21T11:50:26.898Z,18.33
2018-10-21T11:51:26.830Z,18.36
2018-10-21T11:52:26.868Z,18.31
2018-10-21T11:53:26.885Z,18.15
2018-10-21T11:54:26.909Z,18.18
2018-10-21T11:55:26.936Z,18.19
2018-10-21T11:56:26.953Z,18.15
2018-10-21T11:57:26.975Z,18.27
2018-10-21T11:58:27.000Z,18.19
2018-10-21T11:59:27.013Z,18.17
2018-10-21T12:00:27.120Z,18.27
2018-10-21T12:01:27.052Z,18.33
2018-10-21T12:03:27.097Z,18.37
2018-10-21T12:05:27.141Z,18.34
2018-10-21T12:06:27.166Z,18.24
2018-10-21T12:07:27.198Z,18.34
2018-10-21T12:08:27.213Z,18.34
2018-10-21T12:09:27.230Z,18.28
2018-10-21T12:10:27.252Z,18.39
2018-10-21T12:11:27.274Z,18.46
2018-10-21T12:12:27.297Z,18.50
2018-10-21T12:13:27.325Z,18.42
2018-10-21T12:14:27.359Z,18.34
2018-10-21T12:15:27.364Z,18.21
2018-10-21T12:16:27.397Z,18.12
2018-10-21T12:17:27.417Z,18.12
2018-10-21T12:18:27.433Z,18.24
2018-10-21T12:19:27.473Z,18.28
2018-10-21T12:20:27.474Z,18.28
2018-10-21T12:21:27.499Z,18.34
2018-10-21T12:22:27.567Z,18.39
2018-10-21T12:23:27.623Z,18.39
2018-10-21T12:24:27.574Z,18.34
2018-10-21T12:25:27.599Z,18.37
2018-10-21T12:26:27.620Z,18.36
2018-10-21T12:27:27.635Z,18.55
2018-10-21T12:28:27.648Z,18.57
2018-10-21T12:29:27.684Z,18.42
2018-10-21T12:30:27.702Z,18.49
2018-10-21T12:31:27.722Z,18.47
2018-10-21T12:32:27.754Z,18.55
2018-10-21T12:33:27.771Z,18.52
2018-10-21T12:34:27.783Z,18.64
2018-10-21T12:35:27.800Z,18.74
2018-10-21T12:36:27.835Z,18.67
2018-10-21T12:37:27.861Z,18.68
2018-10-21T12:38:27.874Z,18.68
2018-10-21T12:39:27.936Z,18.62
2018-10-21T12:40:27.933Z,18.74
2018-10-21T12:41:27.945Z,18.86
2018-10-21T12:42:27.972Z,18.70
2018-10-21T12:43:27.988Z,18.68
2018-10-21T12:44:28.014Z,18.55
2018-10-21T12:45:28.158Z,18.54
2018-10-21T12:46:28.100Z,18.52
2018-10-21T12:47:28.131Z,18.62
2018-10-21T12:48:28.109Z,18.61
2018-10-21T12:49:28.111Z,18.73
2018-10-21T12:50:28.138Z,18.70
2018-10-21T12:51:28.205Z,18.80
2018-10-21T12:52:28.220Z,18.67
2018-10-21T12:53:28.239Z,18.83
2018-10-21T12:54:28.250Z,18.72
2018-10-21T12:55:28.265Z,18.64
2018-10-21T12:56:28.287Z,18.55
2018-10-21T12:57:28.310Z,18.47
2018-10-21T12:58:28.334Z,18.49
2018-10-21T12:59:28.357Z,18.59
2018-10-21T13:00:28.370Z,18.65